sensor_id;sensor_type;location;lat;lon;timestamp;temperature;humidity
69626;DHT22;56847;51.984;5.088;2023-03-05T00:00:45;7.60;70.20
69626;DHT22;56847;51.984;5.088;2023-03-05T00:03:12;7.50;70.30
69626;DHT22;56847;51.984;5.088;2023-03-05T00:05:39;7.60;70.40
69626;DHT22;56847;51.984;5.088;2023-03-05T00:08:06;7.60;70.40
69626;DHT22;56847;51.984;5.088;2023-03-05T00:10:34;7.60;70.50
69626;DHT22;56847;51.984;5.088;2023-03-05T00:13:01;7.60;70.40
69626;DHT22;56847;51.984;5.088;2023-03-05T00:15:28;7.60;70.50
69626;DHT22;56847;51.984;5.088;2023-03-05T00:17:54;7.60;70.60
69626;DHT22;56847;51.984;5.088;2023-03-05T00:20:21;7.60;70.60
69626;DHT22;56847;51.984;5.088;2023-03-05T00:22:48;7.60;70.70
69626;DHT22;56847;51.984;5.088;2023-03-05T00:25:15;7.60;70.80
69626;DHT22;56847;51.984;5.088;2023-03-05T00:27:42;7.60;70.80
69626;DHT22;56847;51.984;5.088;2023-03-05T00:30:10;7.60;70.90
69626;DHT22;56847;51.984;5.088;2023-03-05T00:32:37;7.60;71.00
69626;DHT22;56847;51.984;5.088;2023-03-05T00:35:04;7.60;70.90
69626;DHT22;56847;51.984;5.088;2023-03-05T00:37:32;7.60;70.90
69626;DHT22;56847;51.984;5.088;2023-03-05T00:39:59;7.60;70.80
69626;DHT22;56847;51.984;5.088;2023-03-05T00:42:27;7.70;70.70
69626;DHT22;56847;51.984;5.088;2023-03-05T00:44:54;7.60;70.70
69626;DHT22;56847;51.984;5.088;2023-03-05T00:47:21;7.60;70.60
69626;DHT22;56847;51.984;5.088;2023-03-05T00:49:48;7.60;70.70
69626;DHT22;56847;51.984;5.088;2023-03-05T00:52:15;7.60;70.70
69626;DHT22;56847;51.984;5.088;2023-03-05T00:54:42;7.60;70.70
69626;DHT22;56847;51.984;5.088;2023-03-05T00:57:09;7.60;70.80
69626;DHT22;56847;51.984;5.088;2023-03-05T00:59:36;7.60;70.80
69626;DHT22;56847;51.984;5.088;2023-03-05T01:02:03;7.50;70.80
69626;DHT22;56847;51.984;5.088;2023-03-05T01:04:30;7.50;70.80
69626;DHT22;56847;51.984;5.088;2023-03-05T01:07:00;7.50;70.90
69626;DHT22;56847;51.984;5.088;2023-03-05T01:09:27;7.50;70.90
69626;DHT22;56847;51.984;5.088;2023-03-05T01:11:54;7.50;71.00
69626;DHT22;56847;51.984;5.088;2023-03-05T01:14:21;7.60;71.10
69626;DHT22;56847;51.984;5.088;2023-03-05T01:16:49;7.50;71.20
69626;DHT22;56847;51.984;5.088;2023-03-05T01:19:16;7.50;71.40
69626;DHT22;56847;51.984;5.088;2023-03-05T01:21:43;7.50;71.50
69626;DHT22;56847;51.984;5.088;2023-03-05T01:24:10;7.50;71.70
69626;DHT22;56847;51.984;5.088;2023-03-05T01:26:37;7.50;72.00
69626;DHT22;56847;51.984;5.088;2023-03-05T01:29:04;7.40;72.10
69626;DHT22;56847;51.984;5.088;2023-03-05T01:31:31;7.40;72.20
69626;DHT22;56847;51.984;5.088;2023-03-05T01:33:58;7.40;72.40
69626;DHT22;56847;51.984;5.088;2023-03-05T01:36:26;7.40;72.40
69626;DHT22;56847;51.984;5.088;2023-03-05T01:38:52;7.40;72.60
69626;DHT22;56847;51.984;5.088;2023-03-05T01:41:20;7.30;72.70
69626;DHT22;56847;51.984;5.088;2023-03-05T01:43:47;7.30;72.80
69626;DHT22;56847;51.984;5.088;2023-03-05T01:52:27;7.30;72.60
69626;DHT22;56847;51.984;5.088;2023-03-05T01:54:51;7.30;72.50
69626;DHT22;56847;51.984;5.088;2023-03-05T01:57:23;7.20;72.60
69626;DHT22;56847;51.984;5.088;2023-03-05T01:59:57;7.20;72.60
69626;DHT22;56847;51.984;5.088;2023-03-05T02:02:25;7.10;72.80
69626;DHT22;56847;51.984;5.088;2023-03-05T02:05:09;7.10;72.80
69626;DHT22;56847;51.984;5.088;2023-03-05T02:07:37;7.10;72.90
69626;DHT22;56847;51.984;5.088;2023-03-05T02:10:27;7.10;73.00
69626;DHT22;56847;51.984;5.088;2023-03-05T02:12:57;7.10;72.90
69626;DHT22;56847;51.984;5.088;2023-03-05T02:15:25;7.10;72.90
69626;DHT22;56847;51.984;5.088;2023-03-05T02:17:52;7.10;73.00
69626;DHT22;56847;51.984;5.088;2023-03-05T02:20:25;7.10;73.00
69626;DHT22;56847;51.984;5.088;2023-03-05T02:22:53;7.10;73.00
69626;DHT22;56847;51.984;5.088;2023-03-05T02:25:22;7.10;73.10
69626;DHT22;56847;51.984;5.088;2023-03-05T02:28:08;7.10;73.10
69626;DHT22;56847;51.984;5.088;2023-03-05T02:30:38;7.10;73.00
69626;DHT22;56847;51.984;5.088;2023-03-05T02:33:05;7.10;73.00
69626;DHT22;56847;51.984;5.088;2023-03-05T02:35:32;7.10;73.00
69626;DHT22;56847;51.984;5.088;2023-03-05T02:37:59;7.10;73.00
69626;DHT22;56847;51.984;5.088;2023-03-05T02:40:26;7.20;73.00
69626;DHT22;56847;51.984;5.088;2023-03-05T02:42:53;7.20;72.90
69626;DHT22;56847;51.984;5.088;2023-03-05T02:45:20;7.20;72.90
69626;DHT22;56847;51.984;5.088;2023-03-05T02:47:47;7.20;72.90
69626;DHT22;56847;51.984;5.088;2023-03-05T02:50:14;7.20;73.00
69626;DHT22;56847;51.984;5.088;2023-03-05T02:52:42;7.10;73.30
69626;DHT22;56847;51.984;5.088;2023-03-05T02:55:13;7.10;73.30
69626;DHT22;56847;51.984;5.088;2023-03-05T02:57:40;7.10;73.40
69626;DHT22;56847;51.984;5.088;2023-03-05T03:00:08;7.00;73.40
69626;DHT22;56847;51.984;5.088;2023-03-05T03:02:35;7.00;73.60
69626;DHT22;56847;51.984;5.088;2023-03-05T03:05:02;6.90;73.70
69626;DHT22;56847;51.984;5.088;2023-03-05T03:07:29;6.90;73.60
69626;DHT22;56847;51.984;5.088;2023-03-05T03:09:56;6.90;73.60
69626;DHT22;56847;51.984;5.088;2023-03-05T03:12:23;6.80;73.70
69626;DHT22;56847;51.984;5.088;2023-03-05T03:14:50;6.80;73.90
69626;DHT22;56847;51.984;5.088;2023-03-05T03:17:17;6.80;74.20
69626;DHT22;56847;51.984;5.088;2023-03-05T03:19:45;6.80;74.50
69626;DHT22;56847;51.984;5.088;2023-03-05T03:22:14;6.80;74.60
69626;DHT22;56847;51.984;5.088;2023-03-05T03:24:42;6.80;74.80
69626;DHT22;56847;51.984;5.088;2023-03-05T03:27:09;6.80;74.90
69626;DHT22;56847;51.984;5.088;2023-03-05T03:29:36;6.80;74.90
69626;DHT22;56847;51.984;5.088;2023-03-05T03:32:03;6.80;74.90
69626;DHT22;56847;51.984;5.088;2023-03-05T03:34:30;6.80;74.80
69626;DHT22;56847;51.984;5.088;2023-03-05T03:36:57;6.80;74.60
69626;DHT22;56847;51.984;5.088;2023-03-05T03:39:24;6.70;74.60
69626;DHT22;56847;51.984;5.088;2023-03-05T03:41:52;6.60;74.70
69626;DHT22;56847;51.984;5.088;2023-03-05T03:44:20;6.60;74.80
69626;DHT22;56847;51.984;5.088;2023-03-05T03:46:49;6.50;75.00
69626;DHT22;56847;51.984;5.088;2023-03-05T03:49:20;6.50;75.30
69626;DHT22;56847;51.984;5.088;2023-03-05T03:51:50;6.50;75.40
69626;DHT22;56847;51.984;5.088;2023-03-05T03:54:18;6.60;75.50
69626;DHT22;56847;51.984;5.088;2023-03-05T03:56:45;6.50;75.70
69626;DHT22;56847;51.984;5.088;2023-03-05T03:59:13;6.60;75.80
69626;DHT22;56847;51.984;5.088;2023-03-05T04:01:40;6.60;75.80
69626;DHT22;56847;51.984;5.088;2023-03-05T04:04:10;6.60;75.80
69626;DHT22;56847;51.984;5.088;2023-03-05T04:06:38;6.60;75.90
69626;DHT22;56847;51.984;5.088;2023-03-05T04:09:05;6.60;75.90
69626;DHT22;56847;51.984;5.088;2023-03-05T04:11:37;6.60;76.00
69626;DHT22;56847;51.984;5.088;2023-03-05T04:14:04;6.60;76.10
69626;DHT22;56847;51.984;5.088;2023-03-05T04:16:31;6.60;76.20
69626;DHT22;56847;51.984;5.088;2023-03-05T04:18:58;6.70;76.20
69626;DHT22;56847;51.984;5.088;2023-03-05T04:21:25;6.60;76.30
69626;DHT22;56847;51.984;5.088;2023-03-05T04:23:52;6.60;76.40
69626;DHT22;56847;51.984;5.088;2023-03-05T04:26:19;6.70;76.50
69626;DHT22;56847;51.984;5.088;2023-03-05T04:28:46;6.70;76.50
69626;DHT22;56847;51.984;5.088;2023-03-05T04:31:14;6.70;76.60
69626;DHT22;56847;51.984;5.088;2023-03-05T04:33:41;6.70;76.70
69626;DHT22;56847;51.984;5.088;2023-03-05T04:36:08;6.80;76.50
69626;DHT22;56847;51.984;5.088;2023-03-05T04:38:35;6.80;76.50
69626;DHT22;56847;51.984;5.088;2023-03-05T04:41:02;6.70;76.70
69626;DHT22;56847;51.984;5.088;2023-03-05T04:43:29;6.70;76.80
69626;DHT22;56847;51.984;5.088;2023-03-05T04:45:56;6.70;76.80
69626;DHT22;56847;51.984;5.088;2023-03-05T04:48:23;6.70;77.00
69626;DHT22;56847;51.984;5.088;2023-03-05T04:50:50;6.80;77.00
69626;DHT22;56847;51.984;5.088;2023-03-05T04:53:17;6.80;77.10
69626;DHT22;56847;51.984;5.088;2023-03-05T04:55:44;6.80;77.10
69626;DHT22;56847;51.984;5.088;2023-03-05T04:58:14;6.80;77.10
69626;DHT22;56847;51.984;5.088;2023-03-05T05:00:40;6.80;77.20
69626;DHT22;56847;51.984;5.088;2023-03-05T05:03:07;6.80;77.20
69626;DHT22;56847;51.984;5.088;2023-03-05T05:05:34;6.80;77.30
69626;DHT22;56847;51.984;5.088;2023-03-05T05:08:01;6.80;77.40
69626;DHT22;56847;51.984;5.088;2023-03-05T05:10:29;6.80;77.40
69626;DHT22;56847;51.984;5.088;2023-03-05T05:12:57;6.80;77.50
69626;DHT22;56847;51.984;5.088;2023-03-05T05:15:24;6.80;77.50
69626;DHT22;56847;51.984;5.088;2023-03-05T05:17:50;6.80;77.50
69626;DHT22;56847;51.984;5.088;2023-03-05T05:20:18;6.80;77.50
69626;DHT22;56847;51.984;5.088;2023-03-05T05:22:45;6.70;77.50
69626;DHT22;56847;51.984;5.088;2023-03-05T05:25:13;6.70;77.60
69626;DHT22;56847;51.984;5.088;2023-03-05T05:27:39;6.70;77.70
69626;DHT22;56847;51.984;5.088;2023-03-05T05:30:07;6.70;77.80
69626;DHT22;56847;51.984;5.088;2023-03-05T05:32:34;6.80;77.90
69626;DHT22;56847;51.984;5.088;2023-03-05T05:35:01;6.80;78.00
69626;DHT22;56847;51.984;5.088;2023-03-05T05:37:29;6.80;78.00
69626;DHT22;56847;51.984;5.088;2023-03-05T05:39:56;6.70;78.10
69626;DHT22;56847;51.984;5.088;2023-03-05T05:42:24;6.70;78.20
69626;DHT22;56847;51.984;5.088;2023-03-05T05:44:50;6.70;78.10
69626;DHT22;56847;51.984;5.088;2023-03-05T05:47:17;6.70;78.20
69626;DHT22;56847;51.984;5.088;2023-03-05T05:49:45;6.60;78.30
69626;DHT22;56847;51.984;5.088;2023-03-05T05:52:12;6.60;78.20
69626;DHT22;56847;51.984;5.088;2023-03-05T05:54:39;6.60;78.30
69626;DHT22;56847;51.984;5.088;2023-03-05T05:57:08;6.50;78.20
69626;DHT22;56847;51.984;5.088;2023-03-05T05:59:35;6.50;78.20
69626;DHT22;56847;51.984;5.088;2023-03-05T06:02:03;6.50;78.40
69626;DHT22;56847;51.984;5.088;2023-03-05T06:04:31;6.50;78.50
69626;DHT22;56847;51.984;5.088;2023-03-05T06:06:58;6.50;78.50
69626;DHT22;56847;51.984;5.088;2023-03-05T06:09:26;6.50;78.50
69626;DHT22;56847;51.984;5.088;2023-03-05T06:11:58;6.50;78.50
69626;DHT22;56847;51.984;5.088;2023-03-05T06:14:33;6.40;78.60
69626;DHT22;56847;51.984;5.088;2023-03-05T06:16:59;6.40;78.60
69626;DHT22;56847;51.984;5.088;2023-03-05T06:19:26;6.40;78.70
69626;DHT22;56847;51.984;5.088;2023-03-05T06:21:53;6.40;78.70
69626;DHT22;56847;51.984;5.088;2023-03-05T06:24:20;6.30;78.70
69626;DHT22;56847;51.984;5.088;2023-03-05T06:26:47;6.30;78.90
69626;DHT22;56847;51.984;5.088;2023-03-05T06:29:14;6.30;78.90
69626;DHT22;56847;51.984;5.088;2023-03-05T06:31:44;6.30;79.00
69626;DHT22;56847;51.984;5.088;2023-03-05T06:34:11;6.30;79.10
69626;DHT22;56847;51.984;5.088;2023-03-05T06:36:38;6.30;79.20
69626;DHT22;56847;51.984;5.088;2023-03-05T06:39:06;6.30;79.10
69626;DHT22;56847;51.984;5.088;2023-03-05T06:41:32;6.30;79.20
69626;DHT22;56847;51.984;5.088;2023-03-05T06:44:00;6.20;79.30
69626;DHT22;56847;51.984;5.088;2023-03-05T06:46:33;6.30;79.40
69626;DHT22;56847;51.984;5.088;2023-03-05T06:49:02;6.30;79.60
69626;DHT22;56847;51.984;5.088;2023-03-05T06:51:32;6.30;79.60
69626;DHT22;56847;51.984;5.088;2023-03-05T06:54:02;6.40;79.60
69626;DHT22;56847;51.984;5.088;2023-03-05T06:56:29;6.40;79.70
69626;DHT22;56847;51.984;5.088;2023-03-05T06:58:56;6.50;79.60
69626;DHT22;56847;51.984;5.088;2023-03-05T07:01:23;6.60;79.60
69626;DHT22;56847;51.984;5.088;2023-03-05T07:03:54;6.60;79.60
69626;DHT22;56847;51.984;5.088;2023-03-05T07:06:24;6.70;79.60
69626;DHT22;56847;51.984;5.088;2023-03-05T07:08:57;6.70;79.60
69626;DHT22;56847;51.984;5.088;2023-03-05T07:11:24;6.80;79.60
69626;DHT22;56847;51.984;5.088;2023-03-05T07:13:51;6.80;79.60
69626;DHT22;56847;51.984;5.088;2023-03-05T07:16:23;6.90;79.60
69626;DHT22;56847;51.984;5.088;2023-03-05T07:18:50;7.00;79.60
69626;DHT22;56847;51.984;5.088;2023-03-05T07:21:24;7.00;79.60
69626;DHT22;56847;51.984;5.088;2023-03-05T07:23:55;7.10;79.50
69626;DHT22;56847;51.984;5.088;2023-03-05T07:26:23;7.10;79.60
69626;DHT22;56847;51.984;5.088;2023-03-05T07:28:50;7.10;79.50
69626;DHT22;56847;51.984;5.088;2023-03-05T07:31:19;7.20;79.50
69626;DHT22;56847;51.984;5.088;2023-03-05T07:33:48;7.20;79.30
69626;DHT22;56847;51.984;5.088;2023-03-05T07:36:15;7.20;79.30
69626;DHT22;56847;51.984;5.088;2023-03-05T07:38:43;7.20;79.30
69626;DHT22;56847;51.984;5.088;2023-03-05T07:41:12;7.20;79.40
69626;DHT22;56847;51.984;5.088;2023-03-05T07:43:39;7.20;79.60
69626;DHT22;56847;51.984;5.088;2023-03-05T07:46:08;7.20;79.60
69626;DHT22;56847;51.984;5.088;2023-03-05T07:48:35;7.20;79.50
69626;DHT22;56847;51.984;5.088;2023-03-05T07:51:05;7.20;79.50
69626;DHT22;56847;51.984;5.088;2023-03-05T07:53:32;7.30;79.50
69626;DHT22;56847;51.984;5.088;2023-03-05T09:54:57;8.90;77.20
69626;DHT22;56847;51.984;5.088;2023-03-05T09:57:40;9.00;76.60
69626;DHT22;56847;51.984;5.088;2023-03-05T10:00:23;9.00;76.50
69626;DHT22;56847;51.984;5.088;2023-03-05T10:02:55;9.10;75.50
69626;DHT22;56847;51.984;5.088;2023-03-05T10:05:36;9.20;75.60
69626;DHT22;56847;51.984;5.088;2023-03-05T10:08:09;9.20;74.70
69626;DHT22;56847;51.984;5.088;2023-03-05T10:10:43;9.20;75.00
69626;DHT22;56847;51.984;5.088;2023-03-05T10:13:26;9.30;75.10
69626;DHT22;56847;51.984;5.088;2023-03-05T10:28:03;10.20;74.60
69626;DHT22;56847;51.984;5.088;2023-03-05T10:30:55;10.30;74.30
69626;DHT22;56847;51.984;5.088;2023-03-05T10:41:59;10.70;72.60
69626;DHT22;56847;51.984;5.088;2023-03-05T10:44:57;10.80;72.60
69626;DHT22;56847;51.984;5.088;2023-03-05T10:47:35;10.80;72.60
69626;DHT22;56847;51.984;5.088;2023-03-05T10:50:25;10.90;72.20
69626;DHT22;56847;51.984;5.088;2023-03-05T10:53:13;10.90;72.10
69626;DHT22;56847;51.984;5.088;2023-03-05T10:55:41;11.00;71.40
69626;DHT22;56847;51.984;5.088;2023-03-05T10:58:14;11.00;70.80
69626;DHT22;56847;51.984;5.088;2023-03-05T11:00:59;10.90;71.20
69626;DHT22;56847;51.984;5.088;2023-03-05T11:03:52;10.90;70.50
69626;DHT22;56847;51.984;5.088;2023-03-05T11:06:45;10.80;68.80
69626;DHT22;56847;51.984;5.088;2023-03-05T11:09:26;10.70;69.80
69626;DHT22;56847;51.984;5.088;2023-03-05T11:14:42;10.70;68.50
69626;DHT22;56847;51.984;5.088;2023-03-05T11:17:28;10.60;67.50
69626;DHT22;56847;51.984;5.088;2023-03-05T11:19:57;10.60;67.30
69626;DHT22;56847;51.984;5.088;2023-03-05T11:23:20;10.50;67.10
69626;DHT22;56847;51.984;5.088;2023-03-05T11:28:29;10.60;69.20
69626;DHT22;56847;51.984;5.088;2023-03-05T11:31:02;10.70;68.80
69626;DHT22;56847;51.984;5.088;2023-03-05T11:33:30;10.80;68.30
69626;DHT22;56847;51.984;5.088;2023-03-05T11:36:31;10.90;67.70
69626;DHT22;56847;51.984;5.088;2023-03-05T11:39:09;11.00;68.20
69626;DHT22;56847;51.984;5.088;2023-03-05T11:41:48;11.10;68.00
69626;DHT22;56847;51.984;5.088;2023-03-05T11:44:33;11.10;67.70
69626;DHT22;56847;51.984;5.088;2023-03-05T11:49:53;10.90;66.40
69626;DHT22;56847;51.984;5.088;2023-03-05T11:52:25;10.90;66.50
69626;DHT22;56847;51.984;5.088;2023-03-05T11:57:38;11.00;67.60
69626;DHT22;56847;51.984;5.088;2023-03-05T12:00:12;11.00;66.60
69626;DHT22;56847;51.984;5.088;2023-03-05T12:02:40;11.00;66.80
69626;DHT22;56847;51.984;5.088;2023-03-05T12:05:14;11.10;66.40
69626;DHT22;56847;51.984;5.088;2023-03-05T12:07:46;11.20;67.10
69626;DHT22;56847;51.984;5.088;2023-03-05T12:10:23;11.40;66.80
69626;DHT22;56847;51.984;5.088;2023-03-05T12:18:36;11.60;67.30
69626;DHT22;56847;51.984;5.088;2023-03-05T12:23:52;11.50;66.70
69626;DHT22;56847;51.984;5.088;2023-03-05T12:42:52;11.80;67.40
69626;DHT22;56847;51.984;5.088;2023-03-05T12:45:32;11.90;67.20
69626;DHT22;56847;51.984;5.088;2023-03-05T12:53:14;11.90;65.20
69626;DHT22;56847;51.984;5.088;2023-03-05T12:56:02;11.80;64.30
69626;DHT22;56847;51.984;5.088;2023-03-05T12:58:37;11.60;65.30
69626;DHT22;56847;51.984;5.088;2023-03-05T13:01:15;11.50;66.00
69626;DHT22;56847;51.984;5.088;2023-03-05T13:04:06;11.40;65.30
69626;DHT22;56847;51.984;5.088;2023-03-05T13:06:40;11.30;65.10
69626;DHT22;56847;51.984;5.088;2023-03-05T13:09:24;11.20;63.90
69626;DHT22;56847;51.984;5.088;2023-03-05T13:11:54;11.00;64.20
69626;DHT22;56847;51.984;5.088;2023-03-05T13:14:31;10.90;64.60
69626;DHT22;56847;51.984;5.088;2023-03-05T13:17:01;10.90;65.00
69626;DHT22;56847;51.984;5.088;2023-03-05T13:19:28;10.90;64.30
69626;DHT22;56847;51.984;5.088;2023-03-05T13:22:08;10.90;65.30
69626;DHT22;56847;51.984;5.088;2023-03-05T13:24:39;11.10;65.10
69626;DHT22;56847;51.984;5.088;2023-03-05T13:27:23;11.20;64.40
69626;DHT22;56847;51.984;5.088;2023-03-05T13:29:51;11.20;63.20
69626;DHT22;56847;51.984;5.088;2023-03-05T13:32:26;11.30;63.10
69626;DHT22;56847;51.984;5.088;2023-03-05T13:34:59;11.30;63.60
69626;DHT22;56847;51.984;5.088;2023-03-05T13:37:30;11.40;62.10
69626;DHT22;56847;51.984;5.088;2023-03-05T13:40:02;11.30;62.10
69626;DHT22;56847;51.984;5.088;2023-03-05T13:42:34;11.20;62.00
69626;DHT22;56847;51.984;5.088;2023-03-05T13:45:03;11.20;62.80
69626;DHT22;56847;51.984;5.088;2023-03-05T13:47:33;11.10;61.80
69626;DHT22;56847;51.984;5.088;2023-03-05T13:50:05;11.00;62.60
69626;DHT22;56847;51.984;5.088;2023-03-05T13:52:35;11.00;63.10
69626;DHT22;56847;51.984;5.088;2023-03-05T13:55:14;10.90;62.60
69626;DHT22;56847;51.984;5.088;2023-03-05T13:57:49;10.80;62.90
69626;DHT22;56847;51.984;5.088;2023-03-05T14:03:06;10.60;62.60
69626;DHT22;56847;51.984;5.088;2023-03-05T14:05:34;10.50;63.00
69626;DHT22;56847;51.984;5.088;2023-03-05T14:08:02;10.40;63.30
69626;DHT22;56847;51.984;5.088;2023-03-05T14:10:36;10.30;63.30
69626;DHT22;56847;51.984;5.088;2023-03-05T14:13:18;10.30;63.90
69626;DHT22;56847;51.984;5.088;2023-03-05T14:16:25;10.30;64.20
69626;DHT22;56847;51.984;5.088;2023-03-05T14:18:56;10.20;64.10
69626;DHT22;56847;51.984;5.088;2023-03-05T14:21:24;10.10;64.20
69626;DHT22;56847;51.984;5.088;2023-03-05T14:23:52;10.10;64.40
69626;DHT22;56847;51.984;5.088;2023-03-05T14:31:28;10.30;64.60
69626;DHT22;56847;51.984;5.088;2023-03-05T14:34:01;10.40;64.10
69626;DHT22;56847;51.984;5.088;2023-03-05T14:36:33;10.50;64.30
69626;DHT22;56847;51.984;5.088;2023-03-05T14:39:00;10.60;64.00
69626;DHT22;56847;51.984;5.088;2023-03-05T14:41:37;10.60;64.40
69626;DHT22;56847;51.984;5.088;2023-03-05T14:44:13;10.70;64.00
69626;DHT22;56847;51.984;5.088;2023-03-05T14:46:41;10.70;62.80
69626;DHT22;56847;51.984;5.088;2023-03-05T14:49:08;10.70;63.10
69626;DHT22;56847;51.984;5.088;2023-03-05T14:51:41;10.70;63.20
69626;DHT22;56847;51.984;5.088;2023-03-05T14:54:23;10.80;63.30
69626;DHT22;56847;51.984;5.088;2023-03-05T14:56:52;10.80;63.20
69626;DHT22;56847;51.984;5.088;2023-03-05T14:59:19;10.80;63.20
69626;DHT22;56847;51.984;5.088;2023-03-05T15:01:49;10.80;63.20
69626;DHT22;56847;51.984;5.088;2023-03-05T15:04:16;10.70;62.90
69626;DHT22;56847;51.984;5.088;2023-03-05T15:06:45;10.70;63.30
69626;DHT22;56847;51.984;5.088;2023-03-05T15:09:17;10.60;63.50
69626;DHT22;56847;51.984;5.088;2023-03-05T15:11:46;10.50;63.90
69626;DHT22;56847;51.984;5.088;2023-03-05T15:14:12;10.50;64.30
69626;DHT22;56847;51.984;5.088;2023-03-05T15:16:41;10.50;64.70
69626;DHT22;56847;51.984;5.088;2023-03-05T15:19:13;10.50;64.60
69626;DHT22;56847;51.984;5.088;2023-03-05T15:21:39;10.50;64.60
69626;DHT22;56847;51.984;5.088;2023-03-05T15:24:09;10.50;63.20
69626;DHT22;56847;51.984;5.088;2023-03-05T15:26:38;10.50;61.70
69626;DHT22;56847;51.984;5.088;2023-03-05T15:29:05;10.40;61.60
69626;DHT22;56847;51.984;5.088;2023-03-05T15:31:32;10.30;61.10
69626;DHT22;56847;51.984;5.088;2023-03-05T15:34:04;10.30;61.40
69626;DHT22;56847;51.984;5.088;2023-03-05T15:36:31;10.30;60.90
69626;DHT22;56847;51.984;5.088;2023-03-05T15:38:59;10.20;61.70
69626;DHT22;56847;51.984;5.088;2023-03-05T15:41:26;10.20;61.90
69626;DHT22;56847;51.984;5.088;2023-03-05T15:43:53;10.20;62.00
69626;DHT22;56847;51.984;5.088;2023-03-05T15:46:20;10.20;61.60
69626;DHT22;56847;51.984;5.088;2023-03-05T15:48:47;10.10;61.90
69626;DHT22;56847;51.984;5.088;2023-03-05T15:51:16;10.10;62.50
69626;DHT22;56847;51.984;5.088;2023-03-05T15:53:43;10.00;62.40
69626;DHT22;56847;51.984;5.088;2023-03-05T15:56:18;10.00;62.50
69626;DHT22;56847;51.984;5.088;2023-03-05T15:58:48;9.90;62.60
69626;DHT22;56847;51.984;5.088;2023-03-05T16:01:16;9.90;62.80
69626;DHT22;56847;51.984;5.088;2023-03-05T16:03:46;9.90;63.00
69626;DHT22;56847;51.984;5.088;2023-03-05T16:06:14;9.80;63.00
69626;DHT22;56847;51.984;5.088;2023-03-05T16:08:42;9.80;62.90
69626;DHT22;56847;51.984;5.088;2023-03-05T16:11:12;9.70;62.90
69626;DHT22;56847;51.984;5.088;2023-03-05T16:13:40;9.70;62.90
69626;DHT22;56847;51.984;5.088;2023-03-05T16:16:10;9.70;63.20
69626;DHT22;56847;51.984;5.088;2023-03-05T16:18:39;9.60;63.00
69626;DHT22;56847;51.984;5.088;2023-03-05T16:21:07;9.60;63.00
69626;DHT22;56847;51.984;5.088;2023-03-05T16:23:36;9.50;63.20
69626;DHT22;56847;51.984;5.088;2023-03-05T16:26:03;9.40;62.80
69626;DHT22;56847;51.984;5.088;2023-03-05T16:28:31;9.40;62.70
69626;DHT22;56847;51.984;5.088;2023-03-05T16:30:57;9.30;63.10
69626;DHT22;56847;51.984;5.088;2023-03-05T16:33:24;9.30;63.10
69626;DHT22;56847;51.984;5.088;2023-03-05T16:36:17;9.20;63.10
69626;DHT22;56847;51.984;5.088;2023-03-05T16:38:49;9.20;63.30
69626;DHT22;56847;51.984;5.088;2023-03-05T16:41:17;9.20;63.30
69626;DHT22;56847;51.984;5.088;2023-03-05T16:43:44;9.10;63.40
69626;DHT22;56847;51.984;5.088;2023-03-05T16:46:11;9.10;63.70
69626;DHT22;56847;51.984;5.088;2023-03-05T16:48:40;9.10;63.80
69626;DHT22;56847;51.984;5.088;2023-03-05T16:51:09;9.00;63.80
69626;DHT22;56847;51.984;5.088;2023-03-05T16:53:36;8.90;64.00
69626;DHT22;56847;51.984;5.088;2023-03-05T16:56:05;8.90;64.30
69626;DHT22;56847;51.984;5.088;2023-03-05T16:58:34;8.90;64.50
69626;DHT22;56847;51.984;5.088;2023-03-05T17:01:01;8.80;64.80
69626;DHT22;56847;51.984;5.088;2023-03-05T17:03:28;8.70;64.70
69626;DHT22;56847;51.984;5.088;2023-03-05T17:05:55;8.70;64.90
69626;DHT22;56847;51.984;5.088;2023-03-05T17:08:22;8.70;65.10
69626;DHT22;56847;51.984;5.088;2023-03-05T17:10:50;8.70;64.90
69626;DHT22;56847;51.984;5.088;2023-03-05T17:13:17;8.60;65.20
69626;DHT22;56847;51.984;5.088;2023-03-05T17:15:44;8.60;65.30
69626;DHT22;56847;51.984;5.088;2023-03-05T17:18:11;8.60;65.30
69626;DHT22;56847;51.984;5.088;2023-03-05T17:20:37;8.60;65.50
69626;DHT22;56847;51.984;5.088;2023-03-05T17:23:04;8.60;65.60
69626;DHT22;56847;51.984;5.088;2023-03-05T17:25:31;8.60;65.60
69626;DHT22;56847;51.984;5.088;2023-03-05T17:27:58;8.50;65.60
69626;DHT22;56847;51.984;5.088;2023-03-05T17:30:25;8.50;65.80
69626;DHT22;56847;51.984;5.088;2023-03-05T17:32:52;8.50;65.90
69626;DHT22;56847;51.984;5.088;2023-03-05T17:35:21;8.50;65.90
69626;DHT22;56847;51.984;5.088;2023-03-05T17:37:48;8.40;65.90
69626;DHT22;56847;51.984;5.088;2023-03-05T17:40:16;8.40;66.10
69626;DHT22;56847;51.984;5.088;2023-03-05T17:42:43;8.40;66.10
69626;DHT22;56847;51.984;5.088;2023-03-05T17:45:10;8.40;66.30
69626;DHT22;56847;51.984;5.088;2023-03-05T17:47:40;8.40;66.20
69626;DHT22;56847;51.984;5.088;2023-03-05T17:50:08;8.40;66.20
69626;DHT22;56847;51.984;5.088;2023-03-05T17:52:35;8.40;66.30
69626;DHT22;56847;51.984;5.088;2023-03-05T17:55:11;8.40;66.40
69626;DHT22;56847;51.984;5.088;2023-03-05T17:57:40;8.30;66.50
69626;DHT22;56847;51.984;5.088;2023-03-05T18:00:20;8.30;66.40
69626;DHT22;56847;51.984;5.088;2023-03-05T18:02:47;8.30;66.40
69626;DHT22;56847;51.984;5.088;2023-03-05T18:05:15;8.20;66.50
69626;DHT22;56847;51.984;5.088;2023-03-05T18:07:42;8.20;66.50
69626;DHT22;56847;51.984;5.088;2023-03-05T18:10:10;8.20;66.50
69626;DHT22;56847;51.984;5.088;2023-03-05T18:12:38;8.20;66.50
69626;DHT22;56847;51.984;5.088;2023-03-05T18:15:07;8.10;66.70
69626;DHT22;56847;51.984;5.088;2023-03-05T18:17:34;8.10;66.70
69626;DHT22;56847;51.984;5.088;2023-03-05T18:20:03;8.10;66.90
69626;DHT22;56847;51.984;5.088;2023-03-05T18:22:30;8.10;67.00
69626;DHT22;56847;51.984;5.088;2023-03-05T18:24:57;8.00;66.90
69626;DHT22;56847;51.984;5.088;2023-03-05T18:27:24;8.00;67.00
69626;DHT22;56847;51.984;5.088;2023-03-05T18:29:51;8.00;67.00
69626;DHT22;56847;51.984;5.088;2023-03-05T18:32:20;8.00;67.10
69626;DHT22;56847;51.984;5.088;2023-03-05T18:34:47;8.00;67.10
69626;DHT22;56847;51.984;5.088;2023-03-05T18:37:16;8.00;67.20
69626;DHT22;56847;51.984;5.088;2023-03-05T18:39:43;7.90;67.30
69626;DHT22;56847;51.984;5.088;2023-03-05T18:42:12;7.90;67.40
69626;DHT22;56847;51.984;5.088;2023-03-05T18:44:40;7.90;67.50
69626;DHT22;56847;51.984;5.088;2023-03-05T18:47:07;7.90;67.50
69626;DHT22;56847;51.984;5.088;2023-03-05T18:49:34;7.90;67.50
69626;DHT22;56847;51.984;5.088;2023-03-05T18:52:02;7.90;67.60
69626;DHT22;56847;51.984;5.088;2023-03-05T18:54:29;7.90;67.70
69626;DHT22;56847;51.984;5.088;2023-03-05T18:56:58;7.90;67.90
69626;DHT22;56847;51.984;5.088;2023-03-05T18:59:25;7.80;67.80
69626;DHT22;56847;51.984;5.088;2023-03-05T19:01:53;7.80;67.90
69626;DHT22;56847;51.984;5.088;2023-03-05T19:04:20;7.80;67.90
69626;DHT22;56847;51.984;5.088;2023-03-05T19:06:47;7.80;68.00
69626;DHT22;56847;51.984;5.088;2023-03-05T19:09:14;7.80;68.10
69626;DHT22;56847;51.984;5.088;2023-03-05T19:11:47;7.80;68.10
69626;DHT22;56847;51.984;5.088;2023-03-05T19:14:15;7.80;68.30